sensor_id;sensor_type;location;lat;lon;timestamp;temperature;humidity
37281;DHT22;23169;41.804;12.596;2023-02-28T00:01:36;9.40;49.50
37281;DHT22;23169;41.804;12.596;2023-02-28T00:04:03;9.40;50.40
37281;DHT22;23169;41.804;12.596;2023-02-28T00:06:36;9.40;51.10
37281;DHT22;23169;41.804;12.596;2023-02-28T00:09:03;9.40;50.40
37281;DHT22;23169;41.804;12.596;2023-02-28T00:11:31;9.40;50.70
37281;DHT22;23169;41.804;12.596;2023-02-28T00:14:01;9.40;50.10
37281;DHT22;23169;41.804;12.596;2023-02-28T00:16:29;9.40;51.40
37281;DHT22;23169;41.804;12.596;2023-02-28T00:18:57;9.40;50.90
37281;DHT22;23169;41.804;12.596;2023-02-28T00:21:27;9.40;50.60
37281;DHT22;23169;41.804;12.596;2023-02-28T00:23:56;8.80;98.90
37281;DHT22;23169;41.804;12.596;2023-02-28T00:26:23;9.30;52.30
37281;DHT22;23169;41.804;12.596;2023-02-28T00:28:52;9.30;51.10
37281;DHT22;23169;41.804;12.596;2023-02-28T00:31:20;9.30;53.80
37281;DHT22;23169;41.804;12.596;2023-02-28T00:33:50;9.30;53.00
37281;DHT22;23169;41.804;12.596;2023-02-28T00:36:18;9.20;54.10
37281;DHT22;23169;41.804;12.596;2023-02-28T00:38:47;9.40;94.80
37281;DHT22;23169;41.804;12.596;2023-02-28T00:41:15;9.10;66.20
37281;DHT22;23169;41.804;12.596;2023-02-28T00:43:42;9.10;55.40
37281;DHT22;23169;41.804;12.596;2023-02-28T00:46:13;9.00;55.90
37281;DHT22;23169;41.804;12.596;2023-02-28T00:48:41;9.00;56.90
37281;DHT22;23169;41.804;12.596;2023-02-28T00:51:11;9.00;58.60
37281;DHT22;23169;41.804;12.596;2023-02-28T00:53:39;9.00;58.30
37281;DHT22;23169;41.804;12.596;2023-02-28T00:56:07;9.00;58.70
37281;DHT22;23169;41.804;12.596;2023-02-28T00:58:35;8.90;58.40
37281;DHT22;23169;41.804;12.596;2023-02-28T01:01:03;9.00;59.00
37281;DHT22;23169;41.804;12.596;2023-02-28T01:03:33;9.00;58.70
37281;DHT22;23169;41.804;12.596;2023-02-28T01:06:01;9.00;58.50
37281;DHT22;23169;41.804;12.596;2023-02-28T01:08:31;9.00;57.50
37281;DHT22;23169;41.804;12.596;2023-02-28T01:11:10;8.40;99.90
37281;DHT22;23169;41.804;12.596;2023-02-28T01:13:40;8.90;99.90
37281;DHT22;23169;41.804;12.596;2023-02-28T01:16:08;8.90;59.40
37281;DHT22;23169;41.804;12.596;2023-02-28T01:18:39;9.00;57.90
37281;DHT22;23169;41.804;12.596;2023-02-28T01:21:12;8.90;58.50
37281;DHT22;23169;41.804;12.596;2023-02-28T01:23:41;8.90;58.30
37281;DHT22;23169;41.804;12.596;2023-02-28T01:26:10;8.90;59.10
37281;DHT22;23169;41.804;12.596;2023-02-28T01:28:44;8.90;60.60
37281;DHT22;23169;41.804;12.596;2023-02-28T01:31:13;9.00;59.10
37281;DHT22;23169;41.804;12.596;2023-02-28T01:33:42;9.00;57.90
37281;DHT22;23169;41.804;12.596;2023-02-28T01:36:21;9.50;99.90
37281;DHT22;23169;41.804;12.596;2023-02-28T01:38:51;8.90;99.90
37281;DHT22;23169;41.804;12.596;2023-02-28T01:41:31;9.00;57.70
37281;DHT22;23169;41.804;12.596;2023-02-28T01:44:06;9.00;57.90
37281;DHT22;23169;41.804;12.596;2023-02-28T01:46:35;8.90;58.60
37281;DHT22;23169;41.804;12.596;2023-02-28T01:49:13;8.90;59.50
37281;DHT22;23169;41.804;12.596;2023-02-28T01:51:45;9.50;99.90
37281;DHT22;23169;41.804;12.596;2023-02-28T01:54:22;8.90;61.00
37281;DHT22;23169;41.804;12.596;2023-02-28T01:57:07;8.90;59.70
37281;DHT22;23169;41.804;12.596;2023-02-28T01:59:42;8.90;58.50
37281;DHT22;23169;41.804;12.596;2023-02-28T02:02:18;9.00;59.40
37281;DHT22;23169;41.804;12.596;2023-02-28T02:04:57;9.00;59.00
37281;DHT22;23169;41.804;12.596;2023-02-28T02:07:31;9.00;58.70
37281;DHT22;23169;41.804;12.596;2023-02-28T02:10:05;9.00;99.90
37281;DHT22;23169;41.804;12.596;2023-02-28T02:13:13;9.00;57.30
37281;DHT22;23169;41.804;12.596;2023-02-28T02:15:56;9.10;55.70
37281;DHT22;23169;41.804;12.596;2023-02-28T02:18:38;9.10;53.80
37281;DHT22;23169;41.804;12.596;2023-02-28T02:40:47;9.20;50.40
37281;DHT22;23169;41.804;12.596;2023-02-28T02:43:19;9.20;50.60
37281;DHT22;23169;41.804;12.596;2023-02-28T02:45:56;9.20;49.80
37281;DHT22;23169;41.804;12.596;2023-02-28T02:48:31;9.20;48.20
37281;DHT22;23169;41.804;12.596;2023-02-28T02:51:03;9.20;48.00
37281;DHT22;23169;41.804;12.596;2023-02-28T02:53:40;9.30;46.20
37281;DHT22;23169;41.804;12.596;2023-02-28T02:56:11;9.30;44.80
37281;DHT22;23169;41.804;12.596;2023-02-28T02:58:43;9.30;44.80
37281;DHT22;23169;41.804;12.596;2023-02-28T03:01:16;9.20;43.90
37281;DHT22;23169;41.804;12.596;2023-02-28T03:03:58;9.20;43.50
37281;DHT22;23169;41.804;12.596;2023-02-28T03:06:27;9.20;91.20
37281;DHT22;23169;41.804;12.596;2023-02-28T03:08:56;9.10;43.70
37281;DHT22;23169;41.804;12.596;2023-02-28T03:11:24;9.20;56.10
37281;DHT22;23169;41.804;12.596;2023-02-28T03:17:13;9.10;42.40
37281;DHT22;23169;41.804;12.596;2023-02-28T03:22:41;9.10;40.90
37281;DHT22;23169;41.804;12.596;2023-02-28T03:28:15;9.10;40.60
37281;DHT22;23169;41.804;12.596;2023-02-28T03:31:08;9.10;40.30
37281;DHT22;23169;41.804;12.596;2023-02-28T03:34:17;9.00;39.50
37281;DHT22;23169;41.804;12.596;2023-02-28T03:36:42;9.00;39.20
37281;DHT22;23169;41.804;12.596;2023-02-28T03:39:23;9.00;39.20
37281;DHT22;23169;41.804;12.596;2023-02-28T03:42:00;9.00;39.10
37281;DHT22;23169;41.804;12.596;2023-02-28T03:47:12;9.00;38.40
37281;DHT22;23169;41.804;12.596;2023-02-28T03:50:05;9.00;38.30
37281;DHT22;23169;41.804;12.596;2023-02-28T03:52:42;9.00;36.30
37281;DHT22;23169;41.804;12.596;2023-02-28T03:55:14;9.10;36.00
37281;DHT22;23169;41.804;12.596;2023-02-28T03:58:35;9.10;35.80
37281;DHT22;23169;41.804;12.596;2023-02-28T04:01:45;9.10;35.10
37281;DHT22;23169;41.804;12.596;2023-02-28T04:04:16;9.10;46.20
37281;DHT22;23169;41.804;12.596;2023-02-28T04:06:51;9.10;33.60
37281;DHT22;23169;41.804;12.596;2023-02-28T04:09:20;8.40;33.40
37281;DHT22;23169;41.804;12.596;2023-02-28T04:11:53;9.10;33.10
37281;DHT22;23169;41.804;12.596;2023-02-28T04:14:37;9.10;33.00
37281;DHT22;23169;41.804;12.596;2023-02-28T04:17:07;9.10;32.40
37281;DHT22;23169;41.804;12.596;2023-02-28T04:19:36;8.90;94.30
37281;DHT22;23169;41.804;12.596;2023-02-28T04:22:09;9.10;86.80
37281;DHT22;23169;41.804;12.596;2023-02-28T04:24:38;9.20;30.00
37281;DHT22;23169;41.804;12.596;2023-02-28T04:27:09;9.20;30.00
37281;DHT22;23169;41.804;12.596;2023-02-28T04:29:37;9.20;30.00
37281;DHT22;23169;41.804;12.596;2023-02-28T04:32:06;9.10;29.70
37281;DHT22;23169;41.804;12.596;2023-02-28T04:34:34;9.10;29.80
37281;DHT22;23169;41.804;12.596;2023-02-28T04:37:03;8.70;93.70
37281;DHT22;23169;41.804;12.596;2023-02-28T04:39:35;9.10;30.40
37281;DHT22;23169;41.804;12.596;2023-02-28T04:42:04;8.70;93.30
37281;DHT22;23169;41.804;12.596;2023-02-28T04:44:33;9.00;90.90
37281;DHT22;23169;41.804;12.596;2023-02-28T04:47:01;9.00;30.90
37281;DHT22;23169;41.804;12.596;2023-02-28T04:49:31;8.40;87.40
37281;DHT22;23169;41.804;12.596;2023-02-28T04:51:59;9.00;30.20
37281;DHT22;23169;41.804;12.596;2023-02-28T04:54:28;9.00;29.70
37281;DHT22;23169;41.804;12.596;2023-02-28T04:56:56;9.00;40.80
37281;DHT22;23169;41.804;12.596;2023-02-28T04:59:25;9.10;29.70
37281;DHT22;23169;41.804;12.596;2023-02-28T05:01:53;9.60;92.90
37281;DHT22;23169;41.804;12.596;2023-02-28T05:04:21;9.10;29.80
37281;DHT22;23169;41.804;12.596;2023-02-28T05:06:50;9.20;29.10
37281;DHT22;23169;41.804;12.596;2023-02-28T05:09:19;9.20;28.60
37281;DHT22;23169;41.804;12.596;2023-02-28T05:11:47;9.30;28.40
37281;DHT22;23169;41.804;12.596;2023-02-28T05:14:15;9.10;91.90
37281;DHT22;23169;41.804;12.596;2023-02-28T05:16:44;9.20;27.60
37281;DHT22;23169;41.804;12.596;2023-02-28T05:19:12;9.20;26.80
37281;DHT22;23169;41.804;12.596;2023-02-28T05:21:52;9.10;27.50
37281;DHT22;23169;41.804;12.596;2023-02-28T05:24:21;9.40;90.80
37281;DHT22;23169;41.804;12.596;2023-02-28T05:26:53;8.90;28.90
37281;DHT22;23169;41.804;12.596;2023-02-28T05:29:23;8.90;29.00
37281;DHT22;23169;41.804;12.596;2023-02-28T05:31:51;8.90;29.00
37281;DHT22;23169;41.804;12.596;2023-02-28T05:34:19;8.80;30.00
37281;DHT22;23169;41.804;12.596;2023-02-28T05:36:48;8.60;95.50
37281;DHT22;23169;41.804;12.596;2023-02-28T05:39:16;8.70;30.50
37281;DHT22;23169;41.804;12.596;2023-02-28T05:41:44;8.80;30.70
37281;DHT22;23169;41.804;12.596;2023-02-28T05:44:12;8.80;31.00
37281;DHT22;23169;41.804;12.596;2023-02-28T05:46:46;8.90;30.90
37281;DHT22;23169;41.804;12.596;2023-02-28T05:49:28;9.00;30.50
37281;DHT22;23169;41.804;12.596;2023-02-28T05:52:05;9.10;29.60
37281;DHT22;23169;41.804;12.596;2023-02-28T05:54:35;9.20;27.70
37281;DHT22;23169;41.804;12.596;2023-02-28T05:57:06;9.30;26.00
37281;DHT22;23169;41.804;12.596;2023-02-28T05:59:36;9.40;25.60
37281;DHT22;23169;41.804;12.596;2023-02-28T06:02:13;9.40;25.10
37281;DHT22;23169;41.804;12.596;2023-02-28T06:04:48;9.40;24.90
37281;DHT22;23169;41.804;12.596;2023-02-28T06:07:17;9.20;90.40
37281;DHT22;23169;41.804;12.596;2023-02-28T06:09:52;9.50;23.60
37281;DHT22;23169;41.804;12.596;2023-02-28T06:12:26;9.50;23.80
37281;DHT22;23169;41.804;12.596;2023-02-28T06:14:57;9.10;81.30
37281;DHT22;23169;41.804;12.596;2023-02-28T06:17:26;9.30;24.70
37281;DHT22;23169;41.804;12.596;2023-02-28T06:19:57;9.30;24.80
37281;DHT22;23169;41.804;12.596;2023-02-28T06:22:31;9.30;25.40
37281;DHT22;23169;41.804;12.596;2023-02-28T06:24:59;9.30;25.10
37281;DHT22;23169;41.804;12.596;2023-02-28T06:27:33;9.30;25.10
37281;DHT22;23169;41.804;12.596;2023-02-28T06:30:07;9.50;97.90
37281;DHT22;23169;41.804;12.596;2023-02-28T06:32:38;9.40;25.10
37281;DHT22;23169;41.804;12.596;2023-02-28T06:35:10;9.40;24.50
37281;DHT22;23169;41.804;12.596;2023-02-28T06:37:42;9.40;24.30
37281;DHT22;23169;41.804;12.596;2023-02-28T06:40:12;9.50;24.00
37281;DHT22;23169;41.804;12.596;2023-02-28T06:42:42;9.40;23.80
37281;DHT22;23169;41.804;12.596;2023-02-28T06:45:11;9.40;23.90
37281;DHT22;23169;41.804;12.596;2023-02-28T06:47:43;9.40;23.60
37281;DHT22;23169;41.804;12.596;2023-02-28T06:50:13;9.50;23.70
37281;DHT22;23169;41.804;12.596;2023-02-28T06:52:46;9.80;75.70
37281;DHT22;23169;41.804;12.596;2023-02-28T06:55:15;9.50;23.60
37281;DHT22;23169;41.804;12.596;2023-02-28T06:57:46;9.70;23.30
37281;DHT22;23169;41.804;12.596;2023-02-28T07:00:18;9.80;22.70
37281;DHT22;23169;41.804;12.596;2023-02-28T07:02:47;10.00;22.60
37281;DHT22;23169;41.804;12.596;2023-02-28T07:05:17;10.00;73.70
37281;DHT22;23169;41.804;12.596;2023-02-28T07:07:46;10.00;20.40
37281;DHT22;23169;41.804;12.596;2023-02-28T07:10:22;10.40;30.60
37281;DHT22;23169;41.804;12.596;2023-02-28T07:12:50;10.60;22.80
37281;DHT22;23169;41.804;12.596;2023-02-28T07:15:19;10.80;20.60
37281;DHT22;23169;41.804;12.596;2023-02-28T07:17:48;11.00;19.90
37281;DHT22;23169;41.804;12.596;2023-02-28T07:20:17;11.10;17.50
37281;DHT22;23169;41.804;12.596;2023-02-28T07:22:47;11.10;15.30
37281;DHT22;23169;41.804;12.596;2023-02-28T07:25:28;11.20;13.40
37281;DHT22;23169;41.804;12.596;2023-02-28T07:28:00;11.40;12.40
37281;DHT22;23169;41.804;12.596;2023-02-28T07:30:29;11.30;11.20
37281;DHT22;23169;41.804;12.596;2023-02-28T07:32:57;11.40;10.70
37281;DHT22;23169;41.804;12.596;2023-02-28T07:35:27;11.40;8.50
37281;DHT22;23169;41.804;12.596;2023-02-28T07:38:00;11.50;9.30
37281;DHT22;23169;41.804;12.596;2023-02-28T07:40:34;11.60;1.00
37281;DHT22;23169;41.804;12.596;2023-02-28T07:43:07;11.50;6.20
37281;DHT22;23169;41.804;12.596;2023-02-28T07:45:38;11.60;6.40
37281;DHT22;23169;41.804;12.596;2023-02-28T07:48:07;11.60;5.00
37281;DHT22;23169;41.804;12.596;2023-02-28T07:50:37;11.60;6.50
37281;DHT22;23169;41.804;12.596;2023-02-28T07:53:06;11.70;5.00
37281;DHT22;23169;41.804;12.596;2023-02-28T07:55:34;11.80;5.00
37281;DHT22;23169;41.804;12.596;2023-02-28T07:58:03;11.90;4.60
37281;DHT22;23169;41.804;12.596;2023-02-28T08:00:32;11.90;3.40
37281;DHT22;23169;41.804;12.596;2023-02-28T08:03:01;11.90;3.30
37281;DHT22;23169;41.804;12.596;2023-02-28T08:05:29;11.80;2.70
37281;DHT22;23169;41.804;12.596;2023-02-28T08:07:58;11.90;3.00
37281;DHT22;23169;41.804;12.596;2023-02-28T08:10:29;11.90;2.10
37281;DHT22;23169;41.804;12.596;2023-02-28T08:12:57;11.90;2.80
37281;DHT22;23169;41.804;12.596;2023-02-28T08:15:25;12.00;2.20
37281;DHT22;23169;41.804;12.596;2023-02-28T08:17:54;12.10;1.40
37281;DHT22;23169;41.804;12.596;2023-02-28T08:20:25;12.20;1.50
37281;DHT22;23169;41.804;12.596;2023-02-28T08:22:53;12.30;1.90
37281;DHT22;23169;41.804;12.596;2023-02-28T08:25:21;12.60;1.40
37281;DHT22;23169;41.804;12.596;2023-02-28T08:27:51;12.80;1.00
37281;DHT22;23169;41.804;12.596;2023-02-28T08:30:20;12.90;1.00
37281;DHT22;23169;41.804;12.596;2023-02-28T08:32:48;13.10;1.00
37281;DHT22;23169;41.804;12.596;2023-02-28T08:35:17;13.20;1.00
37281;DHT22;23169;41.804;12.596;2023-02-28T08:37:47;13.30;1.00
37281;DHT22;23169;41.804;12.596;2023-02-28T08:40:16;13.50;1.00
37281;DHT22;23169;41.804;12.596;2023-02-28T08:42:47;13.60;1.00
37281;DHT22;23169;41.804;12.596;2023-02-28T08:45:16;13.70;1.00
37281;DHT22;23169;41.804;12.596;2023-02-28T08:47:44;13.90;1.00
37281;DHT22;23169;41.804;12.596;2023-02-28T08:50:12;13.90;1.00
37281;DHT22;23169;41.804;12.596;2023-02-28T08:52:43;14.10;1.00
37281;DHT22;23169;41.804;12.596;2023-02-28T08:55:11;14.20;1.00
37281;DHT22;23169;41.804;12.596;2023-02-28T08:57:40;14.30;1.00
37281;DHT22;23169;41.804;12.596;2023-02-28T09:00:08;14.50;1.00
37281;DHT22;23169;41.804;12.596;2023-02-28T09:02:38;14.70;1.00
37281;DHT22;23169;41.804;12.596;2023-02-28T09:05:07;14.80;1.00
37281;DHT22;23169;41.804;12.596;2023-02-28T09:07:36;15.00;1.00
37281;DHT22;23169;41.804;12.596;2023-02-28T09:10:04;15.10;1.00
37281;DHT22;23169;41.804;12.596;2023-02-28T09:12:34;15.30;1.00
37281;DHT22;23169;41.804;12.596;2023-02-28T09:15:03;15.40;1.00
37281;DHT22;23169;41.804;12.596;2023-02-28T09:17:32;15.60;1.00
37281;DHT22;23169;41.804;12.596;2023-02-28T09:20:00;15.70;1.00
37281;DHT22;23169;41.804;12.596;2023-02-28T09:22:30;15.70;1.00
37281;DHT22;23169;41.804;12.596;2023-02-28T09:24:58;15.80;1.00
37281;DHT22;23169;41.804;12.596;2023-02-28T09:27:26;15.90;1.00
37281;DHT22;23169;41.804;12.596;2023-02-28T09:29:54;16.00;1.00
37281;DHT22;23169;41.804;12.596;2023-02-28T09:32:22;16.20;1.00
37281;DHT22;23169;41.804;12.596;2023-02-28T09:34:51;16.30;1.00
37281;DHT22;23169;41.804;12.596;2023-02-28T09:37:21;16.40;1.00
37281;DHT22;23169;41.804;12.596;2023-02-28T09:39:49;16.40;1.00
37281;DHT22;23169;41.804;12.596;2023-02-28T09:42:21;16.30;1.00
37281;DHT22;23169;41.804;12.596;2023-02-28T09:44:53;16.30;1.00
37281;DHT22;23169;41.804;12.596;2023-02-28T09:47:29;16.20;1.00
37281;DHT22;23169;41.804;12.596;2023-02-28T09:50:06;16.10;1.00
37281;DHT22;23169;41.804;12.596;2023-02-28T09:52:37;16.10;1.00
37281;DHT22;23169;41.804;12.596;2023-02-28T09:55:33;15.90;1.00
37281;DHT22;23169;41.804;12.596;2023-02-28T09:58:05;15.80;1.00
37281;DHT22;23169;41.804;12.596;2023-02-28T10:00:40;15.70;1.00
37281;DHT22;23169;41.804;12.596;2023-02-28T10:06:20;15.90;1.00
37281;DHT22;23169;41.804;12.596;2023-02-28T10:11:29;16.10;1.00
37281;DHT22;23169;41.804;12.596;2023-02-28T10:14:04;16.10;1.00
37281;DHT22;23169;41.804;12.596;2023-02-28T10:16:56;16.10;1.00
37281;DHT22;23169;41.804;12.596;2023-02-28T10:19:34;16.20;1.00
37281;DHT22;23169;41.804;12.596;2023-02-28T10:22:52;15.90;1.00
37281;DHT22;23169;41.804;12.596;2023-02-28T10:25:01;15.80;1.00
37281;DHT22;23169;41.804;12.596;2023-02-28T10:27:32;15.80;1.00
37281;DHT22;23169;41.804;12.596;2023-02-28T10:30:02;15.90;1.00
37281;DHT22;23169;41.804;12.596;2023-02-28T10:32:35;15.90;1.00
37281;DHT22;23169;41.804;12.596;2023-02-28T10:37:47;16.20;1.00
37281;DHT22;23169;41.804;12.596;2023-02-28T10:43:05;16.40;1.00
37281;DHT22;23169;41.804;12.596;2023-02-28T10:45:35;16.40;1.00
37281;DHT22;23169;41.804;12.596;2023-02-28T10:50:51;16.10;1.00
37281;DHT22;23169;41.804;12.596;2023-02-28T11:01:43;16.40;1.00
37281;DHT22;23169;41.804;12.596;2023-02-28T11:04:20;16.60;1.00
37281;DHT22;23169;41.804;12.596;2023-02-28T11:07:19;16.80;1.00
37281;DHT22;23169;41.804;12.596;2023-02-28T11:09:52;17.10;1.00
37281;DHT22;23169;41.804;12.596;2023-02-28T11:12:28;17.30;1.00
37281;DHT22;23169;41.804;12.596;2023-02-28T11:15:06;17.60;1.00
37281;DHT22;23169;41.804;12.596;2023-02-28T11:17:42;17.80;1.00
37281;DHT22;23169;41.804;12.596;2023-02-28T11:20:21;17.90;1.00
37281;DHT22;23169;41.804;12.596;2023-02-28T11:22:50;17.90;1.00
37281;DHT22;23169;41.804;12.596;2023-02-28T11:25:24;17.70;1.00
37281;DHT22;23169;41.804;12.596;2023-02-28T11:27:55;17.70;1.00
37281;DHT22;23169;41.804;12.596;2023-02-28T11:30:35;17.60;1.00
37281;DHT22;23169;41.804;12.596;2023-02-28T11:38:58;17.20;1.00
37281;DHT22;23169;41.804;12.596;2023-02-28T11:47:33;17.00;1.00
37281;DHT22;23169;41.804;12.596;2023-02-28T11:53:01;16.90;1.00
37281;DHT22;23169;41.804;12.596;2023-02-28T11:55:39;17.40;1.00
37281;DHT22;23169;41.804;12.596;2023-02-28T12:15:02;17.10;1.00
37281;DHT22;23169;41.804;12.596;2023-02-28T12:23:54;15.20;1.00
37281;DHT22;23169;41.804;12.596;2023-02-28T12:29:19;15.20;1.00
37281;DHT22;23169;41.804;12.596;2023-02-28T12:32:09;15.10;1.00
37281;DHT22;23169;41.804;12.596;2023-02-28T12:34:49;14.90;1.00
37281;DHT22;23169;41.804;12.596;2023-02-28T12:37:27;14.90;1.00
37281;DHT22;23169;41.804;12.596;2023-02-28T12:40:03;14.80;1.00
37281;DHT22;23169;41.804;12.596;2023-02-28T12:42:42;14.90;1.00
37281;DHT22;23169;41.804;12.596;2023-02-28T12:45:24;14.90;1.00
37281;DHT22;23169;41.804;12.596;2023-02-28T12:47:59;14.90;1.00
37281;DHT22;23169;41.804;12.596;2023-02-28T12:53:01;16.20;1.00
37281;DHT22;23169;41.804;12.596;2023-02-28T12:58:51;16.90;1.00
37281;DHT22;23169;41.804;12.596;2023-02-28T13:07:06;16.40;1.00
37281;DHT22;23169;41.804;12.596;2023-02-28T13:09:37;16.20;1.00
37281;DHT22;23169;41.804;12.596;2023-02-28T13:12:14;16.10;1.00
37281;DHT22;23169;41.804;12.596;2023-02-28T13:17:21;15.70;1.00
37281;DHT22;23169;41.804;12.596;2023-02-28T13:22:42;15.70;1.00
37281;DHT22;23169;41.804;12.596;2023-02-28T13:28:03;15.70;1.00
37281;DHT22;23169;41.804;12.596;2023-02-28T13:33:34;15.70;1.00
37281;DHT22;23169;41.804;12.596;2023-02-28T13:49:30;16.60;1.00
37281;DHT22;23169;41.804;12.596;2023-02-28T14:05:46;18.40;1.00
37281;DHT22;23169;41.804;12.596;2023-02-28T14:08:19;16.50;1.00
37281;DHT22;23169;41.804;12.596;2023-02-28T14:11:02;18.30;1.00
37281;DHT22;23169;41.804;12.596;2023-02-28T14:13:43;19.00;1.00
37281;DHT22;23169;41.804;12.596;2023-02-28T14:16:23;19.40;1.00
37281;DHT22;23169;41.804;12.596;2023-02-28T14:19:21;20.10;1.00
37281;DHT22;23169;41.804;12.596;2023-02-28T14:33:35;18.60;1.00
37281;DHT22;23169;41.804;12.596;2023-02-28T14:38:51;17.40;1.00
37281;DHT22;23169;41.804;12.596;2023-02-28T14:43:58;16.80;1.00
37281;DHT22;23169;41.804;12.596;2023-02-28T14:46:37;16.70;1.00
37281;DHT22;23169;41.804;12.596;2023-02-28T14:49:12;16.50;1.00
37281;DHT22;23169;41.804;12.596;2023-02-28T14:51:42;16.20;1.00
37281;DHT22;23169;41.804;12.596;2023-02-28T14:54:14;16.10;1.00
37281;DHT22;23169;41.804;12.596;2023-02-28T14:56:49;15.90;1.00
37281;DHT22;23169;41.804;12.596;2023-02-28T14:59:27;15.90;1.00
37281;DHT22;23169;41.804;12.596;2023-02-28T15:04:58;15.60;1.00
37281;DHT22;23169;41.804;12.596;2023-02-28T15:07:28;15.50;1.00
37281;DHT22;23169;41.804;12.596;2023-02-28T15:10:17;15.30;1.00
37281;DHT22;23169;41.804;12.596;2023-02-28T15:13:07;15.00;1.00
37281;DHT22;23169;41.804;12.596;2023-02-28T15:15:43;15.10;1.00
37281;DHT22;23169;41.804;12.596;2023-02-28T15:21:20;14.80;1.00
37281;DHT22;23169;41.804;12.596;2023-02-28T15:23:54;14.50;1.00
37281;DHT22;23169;41.804;12.596;2023-02-28T15:26:27;14.70;1.00
37281;DHT22;23169;41.804;12.596;2023-02-28T15:29:06;14.50;1.00
37281;DHT22;23169;41.804;12.596;2023-02-28T15:31:42;14.00;1.00
37281;DHT22;23169;41.804;12.596;2023-02-28T15:34:20;14.40;1.00
37281;DHT22;23169;41.804;12.596;2023-02-28T15:36:50;14.20;1.00
37281;DHT22;23169;41.804;12.596;2023-02-28T15:39:23;13.80;1.00
37281;DHT22;23169;41.804;12.596;2023-02-28T15:41:52;14.10;1.00
37281;DHT22;23169;41.804;12.596;2023-02-28T15:44:38;14.20;1.00
37281;DHT22;23169;41.804;12.596;2023-02-28T15:47:18;14.00;1.00
37281;DHT22;23169;41.804;12.596;2023-02-28T15:49:56;14.00;1.00
37281;DHT22;23169;41.804;12.596;2023-02-28T15:57:45;13.90;1.00
37281;DHT22;23169;41.804;12.596;2023-02-28T16:00:18;13.70;1.00
37281;DHT22;23169;41.804;12.596;2023-02-28T16:02:47;13.60;1.00
37281;DHT22;23169;41.804;12.596;2023-02-28T16:05:29;13.70;1.00
37281;DHT22;23169;41.804;12.596;2023-02-28T16:08:14;13.20;1.00
37281;DHT22;23169;41.804;12.596;2023-02-28T16:10:43;13.00;1.00
37281;DHT22;23169;41.804;12.596;2023-02-28T16:13:12;13.10;1.00
37281;DHT22;23169;41.804;12.596;2023-02-28T16:15:43;12.50;1.00
37281;DHT22;23169;41.804;12.596;2023-02-28T16:18:13;12.90;1.00
37281;DHT22;23169;41.804;12.596;2023-02-28T16:20:43;12.80;1.00
37281;DHT22;23169;41.804;12.596;2023-02-28T16:23:12;12.80;1.00
37281;DHT22;23169;41.804;12.596;2023-02-28T16:25:42;12.80;1.00
37281;DHT22;23169;41.804;12.596;2023-02-28T16:33:20;12.20;1.00
37281;DHT22;23169;41.804;12.596;2023-02-28T16:35:50;12.50;1.00
37281;DHT22;23169;41.804;12.596;2023-02-28T16:38:19;12.40;1.00
37281;DHT22;23169;41.804;12.596;2023-02-28T16:40:49;12.30;1.00
37281;DHT22;23169;41.804;12.596;2023-02-28T16:43:23;12.30;1.00
37281;DHT22;23169;41.804;12.596;2023-02-28T16:45:56;12.20;1.00
37281;DHT22;23169;41.804;12.596;2023-02-28T16:48:31;12.20;1.00
37281;DHT22;23169;41.804;12.596;2023-02-28T16:50:59;11.60;12.90
37281;DHT22;23169;41.804;12.596;2023-02-28T16:53:28;12.60;14.60
37281;DHT22;23169;41.804;12.596;2023-02-28T17:00:55;12.00;1.00
37281;DHT22;23169;41.804;12.596;2023-02-28T17:03:26;11.90;1.00
37281;DHT22;23169;41.804;12.596;2023-02-28T17:05:55;12.00;1.00
37281;DHT22;23169;41.804;12.596;2023-02-28T17:08:24;11.30;11.80
37281;DHT22;23169;41.804;12.596;2023-02-28T17:10:52;12.10;19.40
37281;DHT22;23169;41.804;12.596;2023-02-28T17:13:20;12.40;18.10
37281;DHT22;23169;41.804;12.596;2023-02-28T17:15:49;12.00;23.90
37281;DHT22;23169;41.804;12.596;2023-02-28T17:18:19;11.30;15.90
37281;DHT22;23169;41.804;12.596;2023-02-28T17:23:18;11.70;1.00
37281;DHT22;23169;41.804;12.596;2023-02-28T17:25:47;11.70;1.00
37281;DHT22;23169;41.804;12.596;2023-02-28T17:28:21;11.60;1.00
37281;DHT22;23169;41.804;12.596;2023-02-28T17:30:50;12.00;24.30
37281;DHT22;23169;41.804;12.596;2023-02-28T17:33:18;12.00;23.70
37281;DHT22;23169;41.804;12.596;2023-02-28T17:35:47;11.30;15.30
37281;DHT22;23169;41.804;12.596;2023-02-28T17:38:18;11.70;1.00
37281;DHT22;23169;41.804;12.596;2023-02-28T17:40:47;12.40;19.20
37281;DHT22;23169;41.804;12.596;2023-02-28T17:43:15;12.00;11.30
37281;DHT22;23169;41.804;12.596;2023-02-28T17:45:45;12.20;21.10
37281;DHT22;23169;41.804;12.596;2023-02-28T17:48:14;12.00;11.90
37281;DHT22;23169;41.804;12.596;2023-02-28T17:53:12;11.70;14.20
37281;DHT22;23169;41.804;12.596;2023-02-28T17:55:40;11.60;14.00
37281;DHT22;23169;41.804;12.596;2023-02-28T17:58:10;12.00;14.70
37281;DHT22;23169;41.804;12.596;2023-02-28T18:00:42;12.20;19.40
37281;DHT22;23169;41.804;12.596;2023-02-28T18:03:11;12.20;25.70
37281;DHT22;23169;41.804;12.596;2023-02-28T18:05:42;11.80;13.90
37281;DHT22;23169;41.804;12.596;2023-02-28T18:08:11;12.20;21.20
37281;DHT22;23169;41.804;12.596;2023-02-28T18:10:40;11.70;16.70
37281;DHT22;23169;41.804;12.596;2023-02-28T18:13:09;11.70;1.00
37281;DHT22;23169;41.804;12.596;2023-02-28T18:15:42;11.60;25.50
37281;DHT22;23169;41.804;12.596;2023-02-28T18:18:11;11.40;7.30
37281;DHT22;23169;41.804;12.596;2023-02-28T18:20:42;11.70;1.00
37281;DHT22;23169;41.804;12.596;2023-02-28T18:23:11;11.80;22.20
37281;DHT22;23169;41.804;12.596;2023-02-28T18:25:39;11.70;1.00
37281;DHT22;23169;41.804;12.596;2023-02-28T18:28:08;11.60;1.00
37281;DHT22;23169;41.804;12.596;2023-02-28T18:30:37;12.20;10.60
37281;DHT22;23169;41.804;12.596;2023-02-28T18:33:05;11.60;1.00
37281;DHT22;23169;41.804;12.596;2023-02-28T18:35:34;11.60;1.00
37281;DHT22;23169;41.804;12.596;2023-02-28T18:38:10;11.60;1.00
37281;DHT22;23169;41.804;12.596;2023-02-28T18:40:42;11.40;33.20
37281;DHT22;23169;41.804;12.596;2023-02-28T18:43:10;11.90;21.60
37281;DHT22;23169;41.804;12.596;2023-02-28T18:45:39;11.50;1.00
37281;DHT22;23169;41.804;12.596;2023-02-28T18:48:07;11.50;1.00
37281;DHT22;23169;41.804;12.596;2023-02-28T18:50:39;11.00;20.80
37281;DHT22;23169;41.804;12.596;2023-02-28T18:53:07;11.10;22.20
37281;DHT22;23169;41.804;12.596;2023-02-28T18:55:36;11.70;22.90
37281;DHT22;23169;41.804;12.596;2023-02-28T18:58:05;11.40;1.00
37281;DHT22;23169;41.804;12.596;2023-02-28T19:00:35;11.40;1.00
37281;DHT22;23169;41.804;12.596;2023-02-28T19:03:04;11.40;1.00
37281;DHT22;23169;41.804;12.596;2023-02-28T19:05:32;11.40;1.00
37281;DHT22;23169;41.804;12.596;2023-02-28T19:08:02;11.00;25.80
37281;DHT22;23169;41.804;12.596;2023-02-28T19:10:32;11.60;27.70